Time;durP1;ratioP1;P1;durP2;ratioP2;P2;SDS_P1;SDS_P2;PMS_P1;PMS_P2;Temp;Humidity;BMP_temperature;BMP_pressure;BME280_temperature;BME280_humidity;BME280_pressure;Samples;Min_cycle;Max_cycle;Signal;HPM_P1;HPM_P2
2024/01/19 00:00:02;;;;;;;127.28;43.22;;;;;;;;;;5023234;28;20515;-54
2024/01/19 00:02:28;;;;;;;127.13;42.80;;;;;;;;;;5019460;28;20049;-53
2024/01/19 00:04:54;;;;;;;140.07;44.67;;;;;;;;;;5020098;28;20492;-55
2024/01/19 00:07:20;;;;;;;126.32;43.88;;;;;;;;;;5017239;28;20018;-56
2024/01/19 00:09:45;;;;;;;140.38;45.47;;;;;;;;;;5023355;28;20049;-56
2024/01/19 00:12:11;;;;;;;153.27;44.75;;;;;;;;;;5012552;28;20033;-56
2024/01/19 00:14:37;;;;;;;148.68;47.55;;;;;;;;;;5017434;28;20589;-54
2024/01/19 00:17:03;;;;;;;145.07;43.30;;;;;;;;;;5020337;28;20069;-56
2024/01/19 00:19:29;;;;;;;130.48;42.80;;;;;;;;;;5020307;28;20034;-53
2024/01/19 00:21:55;;;;;;;156.07;44.25;;;;;;;;;;5022215;28;20064;-53
2024/01/19 00:24:21;;;;;;;152.57;43.75;;;;;;;;;;5018910;28;20480;-56
2024/01/19 00:26:47;;;;;;;140.73;43.22;;;;;;;;;;5015363;28;20026;-54
2024/01/19 00:29:13;;;;;;;153.93;44.45;;;;;;;;;;5015086;28;20041;-55
2024/01/19 00:31:43;;;;;;;126.20;39.15;;;;;;;;;;5021747;28;20030;-55
2024/01/19 00:34:08;;;;;;;129.75;38.80;;;;;;;;;;5018532;28;20665;-53
2024/01/19 00:36:34;;;;;;;166.02;43.75;;;;;;;;;;5005182;28;20066;-55
2024/01/19 00:39:00;;;;;;;146.57;41.33;;;;;;;;;;5006964;28;20034;-53
2024/01/19 00:41:27;;;;;;;123.72;40.10;;;;;;;;;;5006290;28;20037;-53
2024/01/19 00:43:53;;;;;;;198.68;43.58;;;;;;;;;;5012893;28;20034;-56
2024/01/19 00:46:19;;;;;;;159.43;41.75;;;;;;;;;;5016440;28;20026;-52
2024/01/19 00:48:44;;;;;;;143.57;41.63;;;;;;;;;;5015025;28;20087;-53
2024/01/19 00:51:10;;;;;;;130.68;38.70;;;;;;;;;;5021840;28;20041;-55
2024/01/19 00:53:37;;;;;;;131.95;40.85;;;;;;;;;;5014006;28;20045;-53
2024/01/19 00:56:03;;;;;;;144.40;42.08;;;;;;;;;;5010092;28;20111;-53
2024/01/19 00:58:29;;;;;;;133.88;39.47;;;;;;;;;;5009627;28;20049;-54
2024/01/19 01:00:56;;;;;;;133.70;41.28;;;;;;;;;;5023169;28;20030;-56
2024/01/19 01:03:23;;;;;;;123.90;39.22;;;;;;;;;;5013261;28;20105;-55
2024/01/19 01:05:49;;;;;;;135.63;39.80;;;;;;;;;;5022386;28;20491;-56
2024/01/19 01:08:15;;;;;;;155.07;42.13;;;;;;;;;;5016762;28;20037;-54
2024/01/19 01:10:41;;;;;;;151.30;42.47;;;;;;;;;;5015262;28;20026;-56
2024/01/19 01:13:07;;;;;;;138.15;38.17;;;;;;;;;;5014156;28;20030;-55
2024/01/19 01:15:33;;;;;;;140.18;40.25;;;;;;;;;;5014072;28;20400;-57
2024/01/19 01:17:59;;;;;;;133.40;40.15;;;;;;;;;;5016430;28;20025;-54
2024/01/19 01:20:25;;;;;;;134.30;40.60;;;;;;;;;;5020515;28;20064;-55
2024/01/19 01:22:51;;;;;;;128.20;38.20;;;;;;;;;;5014267;28;20029;-57
2024/01/19 01:25:17;;;;;;;125.13;38.88;;;;;;;;;;5015643;28;20464;-55
2024/01/19 01:27:42;;;;;;;137.85;42.33;;;;;;;;;;5011001;28;20481;-55
2024/01/19 01:30:09;;;;;;;129.18;40.22;;;;;;;;;;5020363;28;20399;-55
2024/01/19 01:32:35;;;;;;;140.98;39.55;;;;;;;;;;5011935;28;20033;-54
2024/01/19 01:35:02;;;;;;;122.53;38.25;;;;;;;;;;5019336;28;20109;-56
2024/01/19 01:37:28;;;;;;;132.85;39.35;;;;;;;;;;5011531;28;20049;-54
2024/01/19 01:39:54;;;;;;;127.55;40.83;;;;;;;;;;5018270;28;20511;-52
2024/01/19 01:42:20;;;;;;;118.40;39.65;;;;;;;;;;5007031;28;20041;-53
2024/01/19 01:44:46;;;;;;;148.00;39.50;;;;;;;;;;5015682;28;20043;-53
2024/01/19 01:47:12;;;;;;;136.30;40.88;;;;;;;;;;5012932;28;20044;-54
2024/01/19 01:49:38;;;;;;;128.75;36.67;;;;;;;;;;5016986;28;20026;-55
2024/01/19 01:52:04;;;;;;;132.13;39.65;;;;;;;;;;5025421;28;20116;-55
2024/01/19 01:54:30;;;;;;;130.52;41.50;;;;;;;;;;5014540;28;20039;-55
2024/01/19 01:56:56;;;;;;;138.02;41.03;;;;;;;;;;5011548;28;20029;-55
2024/01/19 01:59:23;;;;;;;151.82;42.13;;;;;;;;;;5012530;28;20116;-56
2024/01/19 02:01:49;;;;;;;134.02;40.75;;;;;;;;;;5011840;28;20072;-53
2024/01/19 02:04:15;;;;;;;128.07;39.53;;;;;;;;;;5018279;28;20033;-55
2024/01/19 02:06:41;;;;;;;122.10;38.30;;;;;;;;;;5024127;28;20021;-56
2024/01/19 02:09:08;;;;;;;128.73;37.80;;;;;;;;;;5010039;28;20088;-55
2024/01/19 02:11:34;;;;;;;122.55;37.25;;;;;;;;;;5015994;28;20026;-54
2024/01/19 02:14:03;;;;;;;115.82;37.28;;;;;;;;;;5015587;28;20033;-56
2024/01/19 02:16:29;;;;;;;121.45;36.88;;;;;;;;;;5021010;28;20410;-56
2024/01/19 02:18:55;;;;;;;106.45;34.78;;;;;;;;;;5010715;28;20279;-54
2024/01/19 02:21:21;;;;;;;97.15;35.00;;;;;;;;;;5015517;28;20029;-56
2024/01/19 02:23:54;;;;;;;111.82;32.55;;;;;;;;;;5011747;28;20025;-57
2024/01/19 02:26:21;;;;;;;95.88;34.20;;;;;;;;;;5017057;28;20049;-53
2024/01/19 02:28:47;;;;;;;116.68;35.20;;;;;;;;;;5009581;28;20506;-56
2024/01/19 02:31:13;;;;;;;105.18;33.97;;;;;;;;;;5013992;28;20124;-54
2024/01/19 02:33:39;;;;;;;112.50;33.78;;;;;;;;;;5010653;28;20369;-56
2024/01/19 02:36:05;;;;;;;98.47;33.40;;;;;;;;;;5010489;28;20563;-57
2024/01/19 02:38:31;;;;;;;92.72;32.67;;;;;;;;;;5012360;28;20033;-56
2024/01/19 02:40:57;;;;;;;109.68;33.72;;;;;;;;;;5017087;28;20064;-52
2024/01/19 02:43:23;;;;;;;107.80;36.00;;;;;;;;;;5009024;28;20156;-55
2024/01/19 02:45:49;;;;;;;108.95;32.53;;;;;;;;;;5007485;28;20139;-53
2024/01/19 02:48:15;;;;;;;105.53;35.25;;;;;;;;;;5009390;28;20038;-54
2024/01/19 02:50:41;;;;;;;105.03;32.80;;;;;;;;;;5010743;28;20427;-54
2024/01/19 02:53:07;;;;;;;110.85;34.90;;;;;;;;;;5012844;28;20026;-54
2024/01/19 02:55:33;;;;;;;105.32;31.90;;;;;;;;;;5010082;28;20148;-54
2024/01/19 02:57:59;;;;;;;104.60;32.55;;;;;;;;;;5009585;28;20404;-55
2024/01/19 03:00:25;;;;;;;103.15;33.67;;;;;;;;;;5009473;28;20566;-54
2024/01/19 03:02:51;;;;;;;110.97;33.67;;;;;;;;;;5011523;28;20026;-56
2024/01/19 03:05:16;;;;;;;109.70;34.75;;;;;;;;;;5014464;28;20072;-55
2024/01/19 03:07:42;;;;;;;113.88;36.58;;;;;;;;;;5009950;28;20138;-52
2024/01/19 03:10:09;;;;;;;112.50;34.97;;;;;;;;;;5010286;28;20094;-55
2024/01/19 03:12:34;;;;;;;103.72;33.00;;;;;;;;;;5010843;28;20026;-55
2024/01/19 03:15:00;;;;;;;115.43;37.35;;;;;;;;;;5008818;28;20079;-54
2024/01/19 03:17:29;;;;;;;112.32;35.78;;;;;;;;;;5012492;28;20083;-53
2024/01/19 03:19:55;;;;;;;113.15;37.47;;;;;;;;;;5013455;28;20113;-55
2024/01/19 03:22:21;;;;;;;110.03;34.55;;;;;;;;;;5009079;28;20030;-55
2024/01/19 03:24:48;;;;;;;123.10;37.15;;;;;;;;;;5008934;28;20036;-54
2024/01/19 03:27:14;;;;;;;113.63;34.10;;;;;;;;;;5011581;28;20026;-56
2024/01/19 03:29:40;;;;;;;117.90;38.67;;;;;;;;;;5009214;28;20607;-55
2024/01/19 03:32:06;;;;;;;131.95;38.72;;;;;;;;;;5010778;28;20033;-53
2024/01/19 03:34:32;;;;;;;131.77;38.83;;;;;;;;;;5009418;28;20026;-54
2024/01/19 03:37:03;;;;;;;121.80;36.63;;;;;;;;;;5011230;28;20033;-53
2024/01/19 03:39:29;;;;;;;117.55;36.58;;;;;;;;;;5011361;28;20070;-56
2024/01/19 03:41:55;;;;;;;137.98;39.42;;;;;;;;;;5011437;28;20044;-57
2024/01/19 03:44:23;;;;;;;121.28;36.95;;;;;;;;;;5006857;28;20018;-54
2024/01/19 03:46:49;;;;;;;119.68;34.53;;;;;;;;;;5013369;28;20025;-54
2024/01/19 03:49:15;;;;;;;116.13;38.28;;;;;;;;;;5010973;28;20033;-55
2024/01/19 03:52:00;;;;;;;117.47;36.65;;;;;;;;;;5010542;28;20045;-51
2024/01/19 03:54:26;;;;;;;114.35;34.25;;;;;;;;;;5009565;28;20030;-56
2024/01/19 03:56:52;;;;;;;92.53;31.50;;;;;;;;;;5012719;28;20500;-53
2024/01/19 03:59:18;;;;;;;101.53;33.90;;;;;;;;;;5009096;28;20033;-56
2024/01/19 04:01:44;;;;;;;93.68;30.65;;;;;;;;;;5011344;28;20022;-54
2024/01/19 04:04:10;;;;;;;76.40;27.30;;;;;;;;;;5011623;28;20141;-53
2024/01/19 04:06:36;;;;;;;93.25;30.75;;;;;;;;;;5014532;28;20396;-55
2024/01/19 04:09:03;;;;;;;78.78;27.08;;;;;;;;;;5015519;28;20036;-56
2024/01/19 04:11:29;;;;;;;77.35;26.42;;;;;;;;;;5017247;28;20189;-55
2024/01/19 04:13:55;;;;;;;81.55;27.38;;;;;;;;;;5012718;28;20109;-55
2024/01/19 04:16:21;;;;;;;77.78;27.83;;;;;;;;;;5016600;28;20056;-54
2024/01/19 04:18:47;;;;;;;74.22;25.98;;;;;;;;;;5013747;28;20033;-54
2024/01/19 04:21:13;;;;;;;82.97;26.92;;;;;;;;;;5018469;28;20028;-55
2024/01/19 04:23:40;;;;;;;73.40;26.10;;;;;;;;;;5014628;28;20464;-56
2024/01/19 04:26:06;;;;;;;69.35;25.42;;;;;;;;;;5014616;28;20037;-54
2024/01/19 04:28:32;;;;;;;74.63;27.02;;;;;;;;;;5012076;28;20036;-54
2024/01/19 04:30:58;;;;;;;70.40;26.08;;;;;;;;;;5016100;28;20045;-58
2024/01/19 04:33:24;;;;;;;73.32;26.48;;;;;;;;;;5010070;28;20037;-57
2024/01/19 04:35:50;;;;;;;67.38;25.17;;;;;;;;;;5013200;28;20033;-58
2024/01/19 04:38:15;;;;;;;69.65;25.10;;;;;;;;;;5010521;28;20100;-55
2024/01/19 04:40:41;;;;;;;71.65;24.42;;;;;;;;;;5015262;28;20087;-55
2024/01/19 04:43:07;;;;;;;74.40;24.58;;;;;;;;;;5011932;28;20017;-56
2024/01/19 04:45:33;;;;;;;81.10;27.30;;;;;;;;;;5012383;28;20030;-55
2024/01/19 04:47:59;;;;;;;83.18;26.25;;;;;;;;;;5013706;28;20037;-55
2024/01/19 04:50:25;;;;;;;71.35;26.58;;;;;;;;;;5015212;28;20079;-55
2024/01/19 04:52:51;;;;;;;67.47;25.92;;;;;;;;;;5017329;28;20022;-55
2024/01/19 04:55:18;;;;;;;65.53;23.85;;;;;;;;;;5013034;28;20025;-55
2024/01/19 04:57:44;;;;;;;67.38;24.25;;;;;;;;;;5013645;28;20021;-53
2024/01/19 05:00:11;;;;;;;65.18;25.17;;;;;;;;;;5012680;28;20508;-53
2024/01/19 05:02:37;;;;;;;72.47;24.10;;;;;;;;;;5013756;28;20104;-55
2024/01/19 05:05:03;;;;;;;67.10;24.70;;;;;;;;;;5014067;28;20116;-56
2024/01/19 05:07:29;;;;;;;86.28;24.10;;;;;;;;;;5011371;28;20176;-53
2024/01/19 05:09:56;;;;;;;68.22;25.20;;;;;;;;;;5010888;28;20564;-54
2024/01/19 05:12:22;;;;;;;73.50;26.17;;;;;;;;;;5009202;28;20064;-54
2024/01/19 05:14:48;;;;;;;77.35;24.73;;;;;;;;;;5012302;28;20049;-52
2024/01/19 05:17:14;;;;;;;73.25;25.98;;;;;;;;;;5012068;28;20029;-55
2024/01/19 05:19:40;;;;;;;69.80;24.95;;;;;;;;;;5027120;28;20032;-58
2024/01/19 05:22:06;;;;;;;75.53;24.30;;;;;;;;;;5011929;28;20092;-53
2024/01/19 05:24:32;;;;;;;75.10;27.15;;;;;;;;;;5014853;28;20073;-53
2024/01/19 05:26:59;;;;;;;64.68;24.17;;;;;;;;;;5010001;28;20145;-57
2024/01/19 05:29:25;;;;;;;63.90;22.30;;;;;;;;;;5010226;28;20029;-58
2024/01/19 05:31:51;;;;;;;64.20;22.73;;;;;;;;;;5012278;28;20044;-54
2024/01/19 05:34:17;;;;;;;66.70;22.98;;;;;;;;;;5013527;28;20037;-55
2024/01/19 05:36:43;;;;;;;66.97;22.95;;;;;;;;;;5022845;28;20021;-56
2024/01/19 05:39:09;;;;;;;69.22;23.95;;;;;;;;;;5010933;28;20038;-56
2024/01/19 05:41:35;;;;;;;64.03;23.30;;;;;;;;;;5005904;28;20026;-57
2024/01/19 05:44:01;;;;;;;57.42;22.60;;;;;;;;;;5004924;28;20033;-56
2024/01/19 05:46:27;;;;;;;68.43;24.33;;;;;;;;;;5008169;28;20026;-55
2024/01/19 05:48:53;;;;;;;62.65;21.13;;;;;;;;;;5013473;28;20658;-55
2024/01/19 05:51:19;;;;;;;63.28;21.80;;;;;;;;;;5016734;28;20036;-56
2024/01/19 05:53:45;;;;;;;49.78;20.42;;;;;;;;;;5011114;28;20065;-52
2024/01/19 05:56:11;;;;;;;61.65;21.38;;;;;;;;;;5008264;28;20022;-55
2024/01/19 05:58:37;;;;;;;54.58;20.98;;;;;;;;;;5007368;28;20040;-58
2024/01/19 06:01:03;;;;;;;58.50;20.20;;;;;;;;;;5014431;28;20029;-56
2024/01/19 06:03:34;;;;;;;57.10;20.45;;;;;;;;;;5011343;28;20033;-55
2024/01/19 06:06:00;;;;;;;55.30;19.13;;;;;;;;;;5011577;28;20018;-53
2024/01/19 06:08:26;;;;;;;42.20;16.95;;;;;;;;;;5010001;28;20022;-56
2024/01/19 06:10:52;;;;;;;47.85;17.83;;;;;;;;;;5007146;28;20048;-55
2024/01/19 06:13:18;;;;;;;51.90;18.23;;;;;;;;;;5009765;28;20084;-55
2024/01/19 06:15:44;;;;;;;55.47;18.63;;;;;;;;;;5011659;28;20049;-56
2024/01/19 06:18:10;;;;;;;57.30;20.48;;;;;;;;;;5006606;28;20056;-57
2024/01/19 06:20:41;;;;;;;42.80;17.85;;;;;;;;;;5011762;28;20026;-56
2024/01/19 06:23:07;;;;;;;54.33;19.60;;;;;;;;;;5010320;28;20021;-54
2024/01/19 06:25:33;;;;;;;46.65;17.08;;;;;;;;;;5013215;28;20053;-53
2024/01/19 06:27:59;;;;;;;48.47;16.13;;;;;;;;;;5016212;28;20092;-52
2024/01/19 06:30:25;;;;;;;40.22;16.83;;;;;;;;;;5007444;28;20396;-54
2024/01/19 06:32:51;;;;;;;60.00;18.80;;;;;;;;;;5008675;28;20026;-54
2024/01/19 06:35:17;;;;;;;55.28;17.98;;;;;;;;;;5010721;28;20411;-53
2024/01/19 06:37:43;;;;;;;47.55;18.10;;;;;;;;;;5009128;28;20510;-54
2024/01/19 06:40:10;;;;;;;54.97;18.27;;;;;;;;;;5013148;28;20480;-56
2024/01/19 06:42:36;;;;;;;53.50;17.73;;;;;;;;;;5016244;28;20073;-55
2024/01/19 06:45:03;;;;;;;44.25;16.40;;;;;;;;;;5014051;28;20025;-53
2024/01/19 06:47:29;;;;;;;46.53;17.10;;;;;;;;;;5014289;28;20014;-55
2024/01/19 06:49:55;;;;;;;49.13;18.55;;;;;;;;;;5014183;28;20033;-56
2024/01/19 06:52:21;;;;;;;42.88;15.18;;;;;;;;;;5014733;28;20519;-54
2024/01/19 06:54:46;;;;;;;52.28;16.95;;;;;;;;;;5013556;28;20026;-54
2024/01/19 06:57:12;;;;;;;43.60;15.40;;;;;;;;;;5015463;28;20121;-56
2024/01/19 06:59:38;;;;;;;39.53;15.38;;;;;;;;;;5009864;28;20091;-53
2024/01/19 07:02:04;;;;;;;51.22;16.98;;;;;;;;;;5012438;28;20036;-54
2024/01/19 07:04:30;;;;;;;46.30;17.20;;;;;;;;;;5010614;28;20029;-54
2024/01/19 07:06:57;;;;;;;48.80;15.40;;;;;;;;;;5011817;28;20022;-53
2024/01/19 07:09:23;;;;;;;46.67;15.15;;;;;;;;;;5012260;28;20022;-56
2024/01/19 07:11:48;;;;;;;42.25;16.35;;;;;;;;;;5012272;28;20048;-54
2024/01/19 07:14:14;;;;;;;53.72;16.50;;;;;;;;;;5010661;28;20451;-54
2024/01/19 07:16:42;;;;;;;40.78;15.35;;;;;;;;;;5011922;28;20060;-56
2024/01/19 07:19:08;;;;;;;44.80;16.92;;;;;;;;;;5010380;28;20109;-54
2024/01/19 07:21:38;;;;;;;56.28;18.42;;;;;;;;;;5012101;28;20038;-53
2024/01/19 07:24:04;;;;;;;49.65;17.67;;;;;;;;;;5012628;28;20492;-54
2024/01/19 07:26:30;;;;;;;58.42;19.05;;;;;;;;;;5018317;28;20105;-56
2024/01/19 07:28:56;;;;;;;69.47;21.77;;;;;;;;;;5011345;28;20112;-55
2024/01/19 07:31:22;;;;;;;60.28;19.45;;;;;;;;;;5013553;28;20037;-56
2024/01/19 07:33:48;;;;;;;55.33;17.58;;;;;;;;;;5013605;28;20037;-54
2024/01/19 07:36:15;;;;;;;51.75;17.98;;;;;;;;;;5010481;28;20026;-56
2024/01/19 07:38:41;;;;;;;46.13;16.52;;;;;;;;;;5012393;28;20116;-54
2024/01/19 07:41:07;;;;;;;50.45;16.88;;;;;;;;;;5015223;28;20129;-57
2024/01/19 07:43:33;;;;;;;49.33;16.00;;;;;;;;;;5020050;28;20077;-54
2024/01/19 07:45:59;;;;;;;42.65;17.15;;;;;;;;;;5015074;28;20033;-56
2024/01/19 07:48:25;;;;;;;51.83;17.40;;;;;;;;;;5015694;28;20025;-56
2024/01/19 07:50:51;;;;;;;50.95;17.08;;;;;;;;;;5013823;28;20032;-53
2024/01/19 07:53:17;;;;;;;56.00;17.90;;;;;;;;;;5015924;28;20135;-56
2024/01/19 07:55:43;;;;;;;46.25;16.33;;;;;;;;;;5014662;28;20392;-56
2024/01/19 07:58:09;;;;;;;54.83;19.02;;;;;;;;;;5014112;28;20655;-56
2024/01/19 08:00:34;;;;;;;57.35;20.02;;;;;;;;;;5017388;28;20492;-56
2024/01/19 08:03:01;;;;;;;53.10;16.70;;;;;;;;;;5018988;28;20499;-58
2024/01/19 08:05:27;;;;;;;50.67;18.23;;;;;;;;;;5016244;28;20056;-56
2024/01/19 08:07:53;;;;;;;56.10;17.13;;;;;;;;;;5016672;28;20455;-59
2024/01/19 08:10:22;;;;;;;52.63;15.48;;;;;;;;;;5018052;28;20539;-56
2024/01/19 08:12:48;;;;;;;46.20;15.05;;;;;;;;;;5014550;28;20022;-54
2024/01/19 08:15:14;;;;;;;41.55;15.60;;;;;;;;;;5012673;28;20128;-56
2024/01/19 08:17:40;;;;;;;46.53;16.73;;;;;;;;;;5015997;28;20037;-55
2024/01/19 08:20:10;;;;;;;49.05;16.70;;;;;;;;;;5017740;28;20038;-54
2024/01/19 08:22:36;;;;;;;53.20;14.65;;;;;;;;;;5018848;28;20021;-54
2024/01/19 08:25:02;;;;;;;44.30;15.63;;;;;;;;;;5010327;28;20040;-56
2024/01/19 08:27:28;;;;;;;46.53;14.52;;;;;;;;;;5016023;28;20034;-56
2024/01/19 08:29:54;;;;;;;49.78;16.77;;;;;;;;;;5008063;28;20041;-57
2024/01/19 08:32:20;;;;;;;48.75;16.58;;;;;;;;;;5011353;28;20025;-57
2024/01/19 08:34:46;;;;;;;44.33;14.65;;;;;;;;;;5008844;28;20041;-57
2024/01/19 08:37:13;;;;;;;41.70;14.80;;;;;;;;;;5012691;28;20036;-55
2024/01/19 08:39:38;;;;;;;47.38;15.73;;;;;;;;;;5015632;28;20029;-56
2024/01/19 08:42:06;;;;;;;39.90;16.13;;;;;;;;;;5014067;28;20164;-57
2024/01/19 08:44:32;;;;;;;44.50;17.27;;;;;;;;;;5005973;28;20025;-53
2024/01/19 08:46:58;;;;;;;44.65;15.93;;;;;;;;;;5014124;28;20141;-54
2024/01/19 08:49:26;;;;;;;41.13;14.43;;;;;;;;;;5010326;28;20026;-54
2024/01/19 08:51:53;;;;;;;45.42;15.60;;;;;;;;;;5013857;28;20360;-55
2024/01/19 08:54:19;;;;;;;39.90;15.63;;;;;;;;;;5016916;28;20034;-54
2024/01/19 08:56:45;;;;;;;53.60;17.52;;;;;;;;;;5014884;28;20124;-56
2024/01/19 08:59:12;;;;;;;47.15;15.05;;;;;;;;;;5011401;28;20100;-55
2024/01/19 09:01:39;;;;;;;43.08;15.73;;;;;;;;;;5012177;28;20018;-55
2024/01/19 09:04:05;;;;;;;40.80;14.85;;;;;;;;;;5013489;28;20026;-56
2024/01/19 09:06:31;;;;;;;42.25;15.85;;;;;;;;;;5015603;28;20104;-56
2024/01/19 09:09:03;;;;;;;40.63;15.05;;;;;;;;;;5017274;28;20108;-55
2024/01/19 09:11:29;;;;;;;45.17;15.52;;;;;;;;;;5008718;28;20105;-56
2024/01/19 09:13:55;;;;;;;37.63;14.80;;;;;;;;;;5010427;28;20029;-57
2024/01/19 09:16:21;;;;;;;52.28;16.95;;;;;;;;;;5015376;28;20037;-63
2024/01/19 09:18:47;;;;;;;51.33;19.48;;;;;;;;;;5018115;28;20055;-56
2024/01/19 09:21:20;;;;;;;51.17;19.52;;;;;;;;;;5015586;28;20029;-58
2024/01/19 09:23:46;;;;;;;60.17;19.98;;;;;;;;;;5015636;28;20060;-57
2024/01/19 09:26:21;;;;;;;63.15;22.17;;;;;;;;;;5014620;28;20033;-57
2024/01/19 09:28:48;;;;;;;64.05;21.40;;;;;;;;;;5011142;28;20030;-56
2024/01/19 09:31:14;;;;;;;54.92;20.90;;;;;;;;;;5010903;28;20038;-56
2024/01/19 09:33:40;;;;;;;62.65;21.48;;;;;;;;;;5009887;28;20026;-56
2024/01/19 09:36:07;;;;;;;55.90;20.67;;;;;;;;;;5008237;28;20038;-53
2024/01/19 09:38:35;;;;;;;57.47;21.08;;;;;;;;;;5011436;28;20053;-56
2024/01/19 09:41:10;;;;;;;60.85;20.55;;;;;;;;;;5010769;28;20017;-53
2024/01/19 09:43:36;;;;;;;65.55;22.27;;;;;;;;;;5006075;28;20069;-54
2024/01/19 09:46:06;;;;;;;66.75;21.20;;;;;;;;;;5008424;28;20505;-57
2024/01/19 09:48:36;;;;;;;56.53;22.42;;;;;;;;;;5010272;28;20029;-56
2024/01/19 09:51:05;;;;;;;59.53;21.92;;;;;;;;;;5010231;28;20041;-55
2024/01/19 09:53:34;;;;;;;58.28;20.63;;;;;;;;;;5007783;28;20032;-55
2024/01/19 09:56:01;;;;;;;51.22;19.52;;;;;;;;;;5008012;28;20051;-56
2024/01/19 09:58:27;;;;;;;58.80;21.35;;;;;;;;;;5009584;28;20026;-57
2024/01/19 10:00:53;;;;;;;57.90;20.83;;;;;;;;;;5011169;28;20052;-53
2024/01/19 10:03:19;;;;;;;55.60;21.05;;;;;;;;;;5007298;28;20069;-55
2024/01/19 10:05:48;;;;;;;59.40;21.38;;;;;;;;;;5007376;28;20026;-54
2024/01/19 10:08:14;;;;;;;67.47;21.13;;;;;;;;;;5001648;28;20050;-56
2024/01/19 10:10:42;;;;;;;51.70;20.38;;;;;;;;;;5008513;28;20032;-56
2024/01/19 10:13:08;;;;;;;63.22;22.63;;;;;;;;;;5006874;28;20117;-55
2024/01/19 10:15:34;;;;;;;65.20;21.98;;;;;;;;;;5013436;28;20114;-57
2024/01/19 10:18:03;;;;;;;55.55;21.08;;;;;;;;;;5010485;28;20032;-56
2024/01/19 10:20:29;;;;;;;55.75;22.13;;;;;;;;;;5013602;28;20424;-55
2024/01/19 10:22:55;;;;;;;69.25;22.83;;;;;;;;;;5005434;28;20034;-56
2024/01/19 10:25:21;;;;;;;59.72;23.38;;;;;;;;;;5008322;28;20373;-57
2024/01/19 10:27:48;;;;;;;71.05;22.80;;;;;;;;;;5009464;28;20492;-54
2024/01/19 10:30:14;;;;;;;72.97;25.10;;;;;;;;;;5003955;28;20290;-56
2024/01/19 10:32:41;;;;;;;63.00;22.23;;;;;;;;;;5008973;28;20686;-54
2024/01/19 10:35:11;;;;;;;70.72;24.38;;;;;;;;;;5011596;28;20025;-57
2024/01/19 10:37:37;;;;;;;64.03;22.88;;;;;;;;;;5010038;28;20120;-55
2024/01/19 10:40:19;;;;;;;69.00;24.02;;;;;;;;;;5012639;28;20060;-55
2024/01/19 10:42:45;;;;;;;64.03;23.30;;;;;;;;;;5002565;28;20017;-55
2024/01/19 10:45:15;;;;;;;68.82;24.45;;;;;;;;;;5008360;28;20022;-56
2024/01/19 10:47:45;;;;;;;63.40;23.30;;;;;;;;;;5006168;28;20025;-55
2024/01/19 10:50:14;;;;;;;70.25;24.48;;;;;;;;;;5008325;28;20033;-57
2024/01/19 10:52:40;;;;;;;66.82;24.48;;;;;;;;;;5011599;28;20376;-55
2024/01/19 10:55:06;;;;;;;89.88;25.98;;;;;;;;;;5007141;28;20129;-56
2024/01/19 10:57:32;;;;;;;60.92;22.33;;;;;;;;;;5005883;28;20061;-53
2024/01/19 10:59:58;;;;;;;68.20;25.35;;;;;;;;;;5008019;28;20026;-58
2024/01/19 11:02:24;;;;;;;62.58;24.65;;;;;;;;;;5007313;28;20030;-54
2024/01/19 11:04:52;;;;;;;64.65;25.58;;;;;;;;;;5009086;28;20105;-54
2024/01/19 11:07:18;;;;;;;68.60;26.20;;;;;;;;;;5007215;28;20058;-56
2024/01/19 11:09:43;;;;;;;69.05;24.95;;;;;;;;;;5010102;28;20555;-55
2024/01/19 11:12:11;;;;;;;59.63;23.70;;;;;;;;;;5005739;28;20555;-54
2024/01/19 11:14:38;;;;;;;62.70;23.27;;;;;;;;;;5014168;28;20488;-56
2024/01/19 11:17:04;;;;;;;69.32;25.00;;;;;;;;;;5016886;28;20041;-55
2024/01/19 11:19:30;;;;;;;60.80;24.63;;;;;;;;;;5015480;28;20037;-54
2024/01/19 11:21:57;;;;;;;68.40;25.98;;;;;;;;;;5012665;28;20025;-56
2024/01/19 11:24:26;;;;;;;73.32;27.80;;;;;;;;;;5015596;28;20022;-54
2024/01/19 11:26:52;;;;;;;60.25;23.60;;;;;;;;;;5015262;28;20166;-55
2024/01/19 11:29:22;;;;;;;67.30;24.67;;;;;;;;;;5016226;28;20038;-54
2024/01/19 11:31:49;;;;;;;68.70;25.27;;;;;;;;;;5015685;28;20038;-55
2024/01/19 11:34:33;;;;;;;67.60;24.08;;;;;;;;;;5019126;28;20384;-53
2024/01/19 11:36:59;;;;;;;;;;;;;;;;;;5019421;28;20041;-54
2024/01/19 11:39:41;;;;;;;60.97;22.60;;;;;;;;;;5017119;28;19909;-54
2024/01/19 11:42:08;;;;;;;70.43;23.52;;;;;;;;;;5011515;28;20105;-55
2024/01/19 11:44:42;;;;;;;65.07;23.52;;;;;;;;;;5011366;28;20048;-55
2024/01/19 11:47:08;;;;;;;59.97;23.88;;;;;;;;;;5009787;28;20028;-55
2024/01/19 11:49:35;;;;;;;64.47;23.90;;;;;;;;;;5012556;28;20034;-54
2024/01/19 11:52:02;;;;;;;61.83;23.02;;;;;;;;;;5013042;28;20029;-55
2024/01/19 11:54:32;;;;;;;57.30;22.30;;;;;;;;;;5010538;28;20028;-54
2024/01/19 11:57:16;;;;;;;61.45;25.05;;;;;;;;;;5013379;28;20538;-59
2024/01/19 11:59:46;;;;;;;61.15;24.00;;;;;;;;;;5011004;28;20099;-57
2024/01/19 12:02:21;;;;;;;63.05;23.60;;;;;;;;;;5009334;28;20533;-57
2024/01/19 12:04:48;;;;;;;73.95;23.42;;;;;;;;;;5015797;28;20096;-56
2024/01/19 12:07:23;;;;;;;58.67;23.25;;;;;;;;;;5012437;28;20044;-56
2024/01/19 12:10:08;;;;;;;56.13;22.65;;;;;;;;;;5015139;28;20593;-57
2024/01/19 12:12:37;;;;;;;65.80;23.00;;;;;;;;;;5008761;28;20109;-57
2024/01/19 12:15:04;;;;;;;70.15;23.30;;;;;;;;;;5019832;28;20026;-57
2024/01/19 12:17:30;;;;;;;61.38;23.35;;;;;;;;;;5011378;28;20029;-58
2024/01/19 12:19:56;;;;;;;66.28;24.02;;;;;;;;;;5021042;28;20030;-56
2024/01/19 12:22:22;;;;;;;58.35;21.58;;;;;;;;;;5013816;28;20056;-56
2024/01/19 12:24:48;;;;;;;62.50;21.17;;;;;;;;;;5016994;28;20076;-56
2024/01/19 12:27:32;;;;;;;59.53;21.25;;;;;;;;;;5019438;28;20439;-58
2024/01/19 12:29:58;;;;;;;51.20;22.30;;;;;;;;;;5016833;28;20036;-58
2024/01/19 12:32:27;;;;;;;57.15;21.67;;;;;;;;;;5008469;28;20029;-58
2024/01/19 12:34:58;;;;;;;54.05;19.52;;;;;;;;;;5018605;28;20036;-58
2024/01/19 12:37:24;;;;;;;51.50;19.10;;;;;;;;;;5015527;28;20026;-56
2024/01/19 12:39:50;;;;;;;50.50;16.88;;;;;;;;;;5019121;28;20087;-57
2024/01/19 12:42:17;;;;;;;46.75;19.83;;;;;;;;;;5014503;28;20033;-57
2024/01/19 12:44:43;;;;;;;51.60;18.48;;;;;;;;;;5016480;28;20480;-57
2024/01/19 12:47:09;;;;;;;50.80;19.08;;;;;;;;;;5017531;28;20030;-55
2024/01/19 12:49:35;;;;;;;54.33;20.50;;;;;;;;;;5019169;28;20075;-58
2024/01/19 12:52:01;;;;;;;45.90;17.25;;;;;;;;;;5012059;28;20029;-57
2024/01/19 12:54:41;;;;;;;41.78;17.98;;;;;;;;;;5016665;28;20030;-59
2024/01/19 12:57:15;;;;;;;48.70;17.33;;;;;;;;;;5017225;28;20034;-56
2024/01/19 12:59:41;;;;;;;;;;;;;;;;;;5023774;28;20127;-58
2024/01/19 13:02:09;;;;;;;43.45;17.80;;;;;;;;;;5016880;28;20379;-56
2024/01/19 13:04:35;;;;;;;47.10;19.52;;;;;;;;;;5017540;28;20025;-58
2024/01/19 13:07:02;;;;;;;45.80;19.35;;;;;;;;;;5015742;28;20037;-58
2024/01/19 13:09:28;;;;;;;46.10;19.15;;;;;;;;;;5018069;28;20073;-57
2024/01/19 13:12:07;;;;;;;55.97;20.60;;;;;;;;;;5019453;28;20114;-58
2024/01/19 13:14:34;;;;;;;50.17;19.50;;;;;;;;;;5012687;28;20096;-56
2024/01/19 13:17:03;;;;;;;49.03;18.98;;;;;;;;;;5004119;28;20508;-57
2024/01/19 13:19:29;;;;;;;39.88;17.38;;;;;;;;;;5013064;28;20117;-59
2024/01/19 13:21:56;;;;;;;40.33;16.92;;;;;;;;;;5012639;28;20026;-58
2024/01/19 13:24:24;;;;;;;48.38;18.85;;;;;;;;;;5009608;28;20496;-58
2024/01/19 13:27:02;;;;;;;55.55;19.48;;;;;;;;;;5012714;28;20033;-59
2024/01/19 13:29:28;;;;;;;44.90;16.73;;;;;;;;;;5015530;28;20072;-58
2024/01/19 13:31:54;;;;;;;44.90;18.50;;;;;;;;;;5020726;28;20095;-59
2024/01/19 13:34:26;;;;;;;50.60;19.40;;;;;;;;;;5011784;28;20480;-58
2024/01/19 13:36:52;;;;;;;47.78;16.42;;;;;;;;;;5013846;28;20041;-58
2024/01/19 13:39:18;;;;;;;48.33;17.00;;;;;;;;;;5014098;28;20487;-59
2024/01/19 13:41:44;;;;;;;45.97;17.15;;;;;;;;;;5018502;28;20032;-58
2024/01/19 13:44:11;;;;;;;45.33;17.08;;;;;;;;;;5014998;28;20053;-56
2024/01/19 13:46:37;;;;;;;49.13;17.48;;;;;;;;;;5015228;28;20105;-59
2024/01/19 13:49:03;;;;;;;37.58;16.27;;;;;;;;;;5018047;28;20029;-58
2024/01/19 13:51:29;;;;;;;47.47;17.55;;;;;;;;;;5017920;28;20033;-59
2024/01/19 13:53:55;;;;;;;49.97;16.98;;;;;;;;;;5017075;28;20030;-57
2024/01/19 13:56:21;;;;;;;50.25;16.80;;;;;;;;;;5015028;28;20037;-58
2024/01/19 13:58:50;;;;;;;44.80;18.00;;;;;;;;;;5014727;28;20042;-56
2024/01/19 14:01:16;;;;;;;40.08;16.23;;;;;;;;;;5019792;28;20033;-58
2024/01/19 14:03:42;;;;;;;39.65;16.77;;;;;;;;;;5018867;28;20022;-58
2024/01/19 14:06:08;;;;;;;50.58;17.15;;;;;;;;;;5018270;28;20101;-58
2024/01/19 14:08:35;;;;;;;46.38;16.40;;;;;;;;;;5015829;28;20091;-59
2024/01/19 14:11:02;;;;;;;43.08;17.20;;;;;;;;;;5016137;28;20021;-56